Time;durP1;ratioP1;P1;durP2;ratioP2;P2;SDS_P1;SDS_P2;PMS_P1;PMS_P2;Temp;Humidity;BMP_temperature;BMP_pressure;BME280_temperature;BME280_humidity;BME280_pressure;Samples;Min_cycle;Max_cycle;Signal;HPM_P1;HPM_P2
2021/01/07 00:01:23;;;;;;;12.30;8.57;;;2.30;99.90;;;;;;5005379;28;20504;-69
2021/01/07 00:03:51;;;;;;;14.10;9.70;;;2.20;99.90;;;;;;4989320;28;20855;-69
2021/01/07 00:06:19;;;;;;;14.80;8.83;;;2.20;99.90;;;;;;4988400;28;20467;-69
2021/01/07 00:08:47;;;;;;;16.63;9.03;;;2.10;99.90;;;;;;4988456;28;20553;-69
2021/01/07 00:11:15;;;;;;;14.60;10.10;;;2.10;99.90;;;;;;5006666;28;20456;-69
2021/01/07 00:13:42;;;;;;;13.10;9.00;;;2.20;99.90;;;;;;5006566;28;20586;-69
2021/01/07 00:16:10;;;;;;;10.60;8.70;;;2.20;99.90;;;;;;4993964;28;20544;-68
2021/01/07 00:18:38;;;;;;;12.53;7.80;;;2.20;99.90;;;;;;5006879;28;20452;-70
2021/01/07 00:21:05;;;;;;;15.37;9.03;;;2.20;99.90;;;;;;5006828;28;20499;-69
2021/01/07 00:23:33;;;;;;;14.30;9.43;;;2.20;99.90;;;;;;5006113;28;20460;-69
2021/01/07 00:26:00;;;;;;;13.53;9.60;;;2.20;99.90;;;;;;4973102;28;21114;-69
2021/01/07 00:28:29;;;;;;;13.47;8.90;;;2.20;99.90;;;;;;5006850;28;20468;-68
2021/01/07 00:30:56;;;;;;;13.40;9.00;;;2.20;99.90;;;;;;5005328;28;20468;-69
2021/01/07 00:33:24;;;;;;;12.80;8.50;;;2.20;99.90;;;;;;4988842;28;20472;-69
2021/01/07 00:35:51;;;;;;;16.43;9.97;;;2.10;99.90;;;;;;5006336;28;20535;-70
2021/01/07 00:38:19;;;;;;;14.13;9.10;;;2.10;99.90;;;;;;5007491;28;20471;-68
2021/01/07 00:40:47;;;;;;;16.20;10.87;;;2.10;99.90;;;;;;5008330;28;20456;-69
2021/01/07 00:43:14;;;;;;;13.80;8.13;;;2.10;99.90;;;;;;4986037;28;20480;-68
2021/01/07 00:45:42;;;;;;;13.10;8.30;;;2.10;99.90;;;;;;4986731;28;20507;-68
2021/01/07 00:48:09;;;;;;;12.03;8.93;;;2.10;99.90;;;;;;4987053;28;20829;-69
2021/01/07 00:50:37;;;;;;;14.47;9.17;;;2.10;99.90;;;;;;5002237;28;20469;-69
2021/01/07 00:53:06;;;;;;;13.97;9.03;;;2.10;99.90;;;;;;5002112;28;20877;-68
2021/01/07 00:55:34;;;;;;;12.20;8.77;;;2.20;99.90;;;;;;4969942;28;20898;-68
2021/01/07 00:58:07;;;;;;;13.13;9.80;;;2.20;99.90;;;;;;4987440;28;20480;-68
2021/01/07 01:00:35;;;;;;;11.77;8.00;;;2.20;99.90;;;;;;4995785;28;20540;-68
2021/01/07 01:03:04;;;;;;;19.43;9.93;;;2.10;99.90;;;;;;5003194;28;20469;-68
2021/01/07 01:05:33;;;;;;;13.37;8.80;;;2.10;99.90;;;;;;4985785;28;20475;-69
2021/01/07 01:08:03;;;;;;;17.00;8.90;;;2.10;99.90;;;;;;5000251;28;20437;-69
2021/01/07 01:10:30;;;;;;;15.60;10.77;;;2.10;99.90;;;;;;4999484;28;20556;-69
2021/01/07 01:12:57;;;;;;;16.13;9.40;;;2.10;99.90;;;;;;4986487;28;20499;-69
2021/01/07 01:15:25;;;;;;;14.17;9.53;;;2.10;99.90;;;;;;4986051;28;20483;-69
2021/01/07 01:17:53;;;;;;;11.53;9.00;;;2.10;99.90;;;;;;4985609;28;20572;-69
2021/01/07 01:20:21;;;;;;;10.30;7.60;;;2.10;99.90;;;;;;4985468;28;20960;-69
2021/01/07 01:22:48;;;;;;;15.20;8.73;;;2.10;99.90;;;;;;4985759;28;20552;-69
2021/01/07 01:25:16;;;;;;;13.93;8.90;;;2.10;99.90;;;;;;4985660;28;20469;-68
2021/01/07 01:27:44;;;;;;;14.13;8.10;;;2.10;99.90;;;;;;4985090;28;20583;-69
2021/01/07 01:30:15;;;;;;;10.87;7.70;;;2.10;99.90;;;;;;4985409;28;20484;-68
2021/01/07 01:32:44;;;;;;;16.70;8.63;;;2.00;99.90;;;;;;4983716;28;20491;-70
2021/01/07 01:35:14;;;;;;;18.00;8.87;;;2.00;99.90;;;;;;4985268;28;20583;-69
2021/01/07 01:37:43;;;;;;;12.53;7.63;;;2.00;99.90;;;;;;4985398;28;20437;-69
2021/01/07 01:40:12;;;;;;;11.73;8.07;;;2.00;99.90;;;;;;4983984;28;20968;-69
2021/01/07 01:42:40;;;;;;;10.63;7.17;;;1.90;99.90;;;;;;4985619;28;21530;-69
2021/01/07 01:45:08;;;;;;;13.20;7.47;;;1.90;99.90;;;;;;4983541;28;20472;-69
2021/01/07 01:47:35;;;;;;;14.67;8.93;;;1.90;99.90;;;;;;4985019;28;20477;-69
2021/01/07 01:50:04;;;;;;;13.17;7.67;;;1.90;99.90;;;;;;4983980;28;20472;-69
2021/01/07 01:52:34;;;;;;;14.50;7.73;;;1.90;99.90;;;;;;4985660;28;20589;-69
2021/01/07 01:55:07;;;;;;;12.80;7.33;;;1.90;99.90;;;;;;4985731;28;20489;-69
2021/01/07 01:57:35;;;;;;;13.30;8.13;;;1.80;99.90;;;;;;4984889;28;21003;-69
2021/01/07 02:00:05;;;;;;;17.20;8.60;;;1.80;99.90;;;;;;4985308;28;20472;-69
2021/01/07 02:02:33;;;;;;;16.20;8.77;;;1.80;99.90;;;;;;4983213;28;20481;-69
2021/01/07 02:05:02;;;;;;;15.40;8.17;;;1.80;99.90;;;;;;4985660;28;20461;-69
2021/01/07 02:07:30;;;;;;;10.97;7.50;;;1.80;99.90;;;;;;4985564;28;20557;-69
2021/01/07 02:09:58;;;;;;;13.27;9.50;;;1.80;99.90;;;;;;4985681;28;20457;-69
2021/01/07 02:12:29;;;;;;;15.93;8.87;;;1.80;99.90;;;;;;4985824;28;20460;-69
2021/01/07 02:14:56;;;;;;;13.50;8.83;;;1.80;99.90;;;;;;4985417;28;20491;-69
2021/01/07 02:17:26;;;;;;;10.30;6.87;;;1.80;99.90;;;;;;5001895;28;20584;-69
2021/01/07 02:19:58;;;;;;;11.77;7.53;;;1.80;99.90;;;;;;5003259;28;20467;-69
2021/01/07 02:22:27;;;;;;;13.40;7.00;;;1.70;99.90;;;;;;5020144;28;20989;-68
2021/01/07 02:24:55;;;;;;;11.40;7.60;;;1.70;99.90;;;;;;5004660;28;20491;-69
2021/01/07 02:27:48;;;;;;;14.97;9.60;;;1.70;99.90;;;;;;5004805;28;20476;-68
2021/01/07 02:30:17;;;;;;;11.07;7.13;;;1.70;99.90;;;;;;5004682;28;20460;-68
2021/01/07 02:32:48;;;;;;;13.10;8.10;;;1.70;99.90;;;;;;5007934;28;20515;-68
2021/01/07 02:35:17;;;;;;;14.67;7.60;;;1.70;99.90;;;;;;5008318;28;20495;-68
2021/01/07 02:37:46;;;;;;;12.33;7.37;;;1.70;99.90;;;;;;5006613;28;20551;-68
2021/01/07 02:40:15;;;;;;;10.90;6.90;;;1.60;99.90;;;;;;5007761;28;20460;-68
2021/01/07 02:42:42;;;;;;;12.70;7.80;;;1.70;99.90;;;;;;5006291;28;20919;-68
2021/01/07 02:45:10;;;;;;;10.80;6.20;;;1.70;99.90;;;;;;4989496;28;20601;-69
2021/01/07 02:47:38;;;;;;;11.63;7.33;;;1.80;99.90;;;;;;5005692;28;20480;-68
2021/01/07 02:50:08;;;;;;;12.97;7.90;;;1.70;99.90;;;;;;5022838;28;20527;-68
2021/01/07 02:52:37;;;;;;;13.87;7.07;;;1.70;99.90;;;;;;5008468;28;20487;-68
2021/01/07 02:55:06;;;;;;;10.53;6.80;;;1.70;99.90;;;;;;5006714;28;20495;-68
2021/01/07 02:57:34;;;;;;;10.43;6.07;;;1.70;99.90;;;;;;5007373;28;20457;-69
2021/01/07 03:00:02;;;;;;;12.00;7.73;;;1.70;99.90;;;;;;5006234;28;20468;-69
2021/01/07 03:02:29;;;;;;;10.40;6.10;;;1.70;99.90;;;;;;5005852;28;20843;-70
2021/01/07 03:04:56;;;;;;;12.47;7.07;;;1.60;99.90;;;;;;5007115;28;20539;-69
2021/01/07 03:07:23;;;;;;;11.83;7.23;;;1.60;99.90;;;;;;5006939;28;20828;-69
2021/01/07 03:09:52;;;;;;;12.43;7.23;;;1.60;99.90;;;;;;5005543;28;20499;-69
2021/01/07 03:12:19;;;;;;;14.40;8.53;;;1.60;99.90;;;;;;4989352;28;20464;-69
2021/01/07 03:14:47;;;;;;;9.73;6.73;;;1.60;99.90;;;;;;5007350;28;20487;-69
2021/01/07 03:17:16;;;;;;;11.90;8.03;;;1.60;99.90;;;;;;5005402;28;20499;-69
2021/01/07 03:19:44;;;;;;;12.60;7.60;;;1.60;99.90;;;;;;5008040;28;20463;-68
2021/01/07 03:22:11;;;;;;;12.73;7.80;;;1.60;99.90;;;;;;5007370;28;20471;-68
2021/01/07 03:24:38;;;;;;;12.27;8.27;;;1.70;99.90;;;;;;5006972;28;20467;-68
2021/01/07 03:27:06;;;;;;;10.73;7.17;;;1.70;99.90;;;;;;5007161;28;20451;-68
2021/01/07 03:29:34;;;;;;;14.13;8.67;;;1.70;99.90;;;;;;5008280;28;20463;-68
2021/01/07 03:32:02;;;;;;;12.53;8.73;;;1.70;99.90;;;;;;5007133;28;20483;-68
2021/01/07 03:34:29;;;;;;;14.07;7.07;;;1.70;99.90;;;;;;5011619;28;20490;-68
2021/01/07 03:36:59;;;;;;;11.90;7.27;;;1.70;99.90;;;;;;5006879;28;20514;-69
2021/01/07 03:39:27;;;;;;;15.33;7.80;;;1.70;99.90;;;;;;5007550;28;20535;-68
2021/01/07 03:41:54;;;;;;;12.27;7.73;;;1.70;99.90;;;;;;5007884;28;20482;-68
2021/01/07 03:44:22;;;;;;;13.37;7.07;;;1.70;99.90;;;;;;5023699;28;20523;-68
2021/01/07 03:46:50;;;;;;;11.70;8.13;;;1.70;99.90;;;;;;5010601;28;20525;-68
2021/01/07 03:49:17;;;;;;;12.07;8.03;;;1.70;99.90;;;;;;5026983;28;20482;-68
2021/01/07 03:51:45;;;;;;;12.60;7.67;;;1.60;99.90;;;;;;5029929;28;20533;-68
2021/01/07 03:54:12;;;;;;;13.97;8.20;;;1.60;99.90;;;;;;5030765;28;20478;-68
2021/01/07 03:56:40;;;;;;;13.70;8.00;;;1.70;99.90;;;;;;5030315;28;20478;-68
2021/01/07 03:59:07;;;;;;;15.60;8.07;;;1.60;99.90;;;;;;5027748;28;20506;-68
2021/01/07 04:01:35;;;;;;;17.20;8.37;;;1.60;99.90;;;;;;5025824;28;20475;-68
2021/01/07 04:04:03;;;;;;;12.50;7.47;;;1.60;99.90;;;;;;5026428;28;20482;-68
2021/01/07 04:06:31;;;;;;;21.70;10.10;;;1.60;99.90;;;;;;5026262;28;20456;-68
2021/01/07 04:09:00;;;;;;;17.80;9.53;;;1.60;99.90;;;;;;5008452;28;20456;-68
2021/01/07 04:11:27;;;;;;;16.90;10.07;;;1.60;99.90;;;;;;5025957;28;20470;-69
2021/01/07 04:13:55;;;;;;;16.30;10.90;;;1.60;99.90;;;;;;5025870;28;20505;-68
2021/01/07 04:16:22;;;;;;;15.07;9.20;;;1.60;99.90;;;;;;5025092;28;20853;-68
2021/01/07 04:18:51;;;;;;;11.87;8.07;;;1.60;99.90;;;;;;5026001;28;20466;-68
2021/01/07 04:21:18;;;;;;;13.73;8.17;;;1.60;99.90;;;;;;5026556;28;20459;-68
2021/01/07 04:23:45;;;;;;;18.97;10.57;;;1.50;99.90;;;;;;5026140;28;20459;-68
2021/01/07 04:26:14;;;;;;;17.70;11.13;;;1.60;99.90;;;;;;5025833;28;20505;-68
2021/01/07 04:28:41;;;;;;;18.17;10.83;;;1.60;99.90;;;;;;5025419;28;20463;-69
2021/01/07 04:31:34;;;;;;;15.20;10.00;;;1.60;99.90;;;;;;5042159;28;20451;-68
2021/01/07 04:34:02;;;;;;;18.70;8.80;;;1.60;99.90;;;;;;5033197;28;20451;-68
2021/01/07 04:36:30;;;;;;;16.70;9.57;;;1.60;99.90;;;;;;5027740;28;20467;-69
2021/01/07 04:38:58;;;;;;;14.67;9.07;;;1.60;99.90;;;;;;5026192;28;20510;-69
2021/01/07 04:41:26;;;;;;;18.07;9.87;;;1.60;99.90;;;;;;5007843;28;20455;-69
2021/01/07 04:43:55;;;;;;;18.47;10.13;;;1.60;99.90;;;;;;4987579;28;20479;-68
2021/01/07 04:46:22;;;;;;;16.57;9.87;;;1.60;99.90;;;;;;5005081;28;21013;-68
2021/01/07 04:48:51;;;;;;;22.27;10.57;;;1.60;99.90;;;;;;5004552;28;20535;-68
2021/01/07 04:51:20;;;;;;;16.53;9.13;;;1.50;99.90;;;;;;5006039;28;20559;-68
2021/01/07 04:53:49;;;;;;;13.60;8.77;;;1.60;99.90;;;;;;5004591;28;20464;-68
2021/01/07 04:56:17;;;;;;;17.13;9.20;;;1.60;99.90;;;;;;5005580;28;20463;-68
2021/01/07 04:58:45;;;;;;;19.03;9.90;;;1.60;99.90;;;;;;5004231;28;20535;-68
2021/01/07 05:01:13;;;;;;;16.67;9.27;;;1.60;99.90;;;;;;5004936;28;20490;-68
2021/01/07 05:03:44;;;;;;;17.80;9.80;;;1.60;99.90;;;;;;5004590;28;22139;-68
2021/01/07 05:06:13;;;;;;;16.43;11.20;;;1.50;99.90;;;;;;5004790;28;20483;-68
2021/01/07 05:08:41;;;;;;;14.97;9.80;;;1.60;99.90;;;;;;5005837;28;20581;-68
2021/01/07 05:11:09;;;;;;;15.60;9.67;;;1.50;99.90;;;;;;5005573;28;21029;-69
2021/01/07 05:13:45;;;;;;;17.70;10.07;;;1.60;99.90;;;;;;5006269;28;20460;-69
2021/01/07 05:16:21;;;;;;;18.37;10.13;;;1.60;99.90;;;;;;4987811;28;20986;-68
2021/01/07 05:18:48;;;;;;;13.40;9.30;;;1.60;99.90;;;;;;5005303;28;20474;-68
2021/01/07 05:21:21;;;;;;;19.90;12.37;;;1.60;99.90;;;;;;4988802;28;20456;-69
2021/01/07 05:23:52;;;;;;;22.27;11.80;;;1.60;99.90;;;;;;5006478;28;20464;-68
2021/01/07 05:26:21;;;;;;;18.93;11.47;;;1.60;99.90;;;;;;5004840;28;20464;-68
2021/01/07 05:28:49;;;;;;;31.33;18.43;;;1.60;99.90;;;;;;5006154;28;20530;-68
2021/01/07 05:31:24;;;;;;;28.13;15.80;;;1.60;99.90;;;;;;4987815;28;20997;-68
2021/01/07 05:33:54;;;;;;;21.93;14.00;;;1.50;99.90;;;;;;5006785;28;20488;-68
2021/01/07 05:36:24;;;;;;;24.57;16.50;;;1.50;99.90;;;;;;5005324;28;20464;-68
2021/01/07 05:38:55;;;;;;;23.43;15.57;;;1.50;99.90;;;;;;5007188;28;20872;-68
2021/01/07 05:41:24;;;;;;;25.50;16.70;;;1.60;99.90;;;;;;5008628;28;20452;-68
2021/01/07 05:43:59;;;;;;;24.73;13.97;;;1.60;99.90;;;;;;5016815;28;20487;-68
2021/01/07 05:46:26;;;;;;;23.53;13.80;;;1.60;99.90;;;;;;5040770;28;20474;-68
2021/01/07 05:48:54;;;;;;;26.60;12.90;;;1.60;99.90;;;;;;5036896;28;20562;-68
2021/01/07 05:51:25;;;;;;;21.47;12.93;;;1.70;99.90;;;;;;5030863;28;20578;-68
2021/01/07 05:53:54;;;;;;;23.10;13.37;;;1.70;99.90;;;;;;5030331;28;20455;-68
2021/01/07 05:56:23;;;;;;;28.53;16.03;;;1.60;99.90;;;;;;5025186;28;20891;-69
2021/01/07 05:58:52;;;;;;;26.30;14.10;;;1.60;99.90;;;;;;5025491;28;20455;-68
2021/01/07 06:01:20;;;;;;;22.57;12.50;;;1.60;99.90;;;;;;5006480;28;20483;-68
2021/01/07 06:03:52;;;;;;;18.73;12.50;;;1.60;99.90;;;;;;5025021;28;20475;-68
2021/01/07 06:06:21;;;;;;;22.77;12.70;;;1.60;99.90;;;;;;5028437;28;20474;-68
2021/01/07 06:08:51;;;;;;;24.00;12.80;;;1.60;99.90;;;;;;5029099;28;21088;-69
2021/01/07 06:11:21;;;;;;;26.33;15.67;;;1.60;99.90;;;;;;5028767;28;20471;-68
2021/01/07 06:13:51;;;;;;;20.60;11.93;;;1.50;99.90;;;;;;5010548;28;20463;-68
2021/01/07 06:16:20;;;;;;;19.00;12.23;;;1.60;99.90;;;;;;5010042;28;20475;-68
2021/01/07 06:18:47;;;;;;;23.07;13.50;;;1.50;99.90;;;;;;5028500;28;20459;-68
2021/01/07 06:21:17;;;;;;;20.63;11.60;;;1.50;99.90;;;;;;5010289;28;20489;-68
2021/01/07 06:23:45;;;;;;;27.10;12.23;;;1.60;99.90;;;;;;4994157;28;20551;-68
2021/01/07 06:26:25;;;;;;;23.50;13.20;;;1.60;99.90;;;;;;5028611;28;20550;-68
2021/01/07 06:28:56;;;;;;;23.97;12.20;;;1.60;99.90;;;;;;5028616;28;20458;-68
2021/01/07 06:31:32;;;;;;;24.63;11.87;;;1.50;99.90;;;;;;5009279;28;20967;-68
2021/01/07 06:33:59;;;;;;;18.40;11.43;;;1.50;99.90;;;;;;5028433;28;20497;-68
2021/01/07 06:36:46;;;;;;;16.47;10.50;;;1.50;99.90;;;;;;5010533;28;21049;-69
2021/01/07 06:39:13;;;;;;;16.97;11.67;;;1.60;99.90;;;;;;5029037;28;20915;-68
2021/01/07 06:41:52;;;;;;;24.80;13.70;;;1.50;99.90;;;;;;5028132;28;20451;-68
2021/01/07 06:44:21;;;;;;;21.27;10.73;;;1.50;99.90;;;;;;5010418;28;20483;-68
2021/01/07 06:46:49;;;;;;;20.70;11.83;;;1.50;99.90;;;;;;5026773;28;20574;-70
2021/01/07 06:49:19;;;;;;;19.27;11.60;;;1.50;99.90;;;;;;5010365;28;20988;-67
2021/01/07 06:51:51;;;;;;;26.63;14.20;;;1.40;99.90;;;;;;5028279;28;20444;-68
2021/01/07 06:54:19;;;;;;;25.07;13.27;;;1.40;99.90;;;;;;5028026;28;20546;-68
2021/01/07 06:56:52;;;;;;;23.13;12.00;;;1.40;99.90;;;;;;4993727;28;20463;-68
2021/01/07 06:59:22;;;;;;;24.90;12.90;;;1.40;99.90;;;;;;5027853;28;20474;-68
2021/01/07 07:01:52;;;;;;;23.77;13.70;;;1.40;99.90;;;;;;5026905;28;20474;-68
2021/01/07 07:04:27;;;;;;;24.40;12.93;;;1.50;99.90;;;;;;5027522;28;20490;-69
2021/01/07 07:07:02;;;;;;;22.47;11.70;;;1.50;99.90;;;;;;5010295;28;20494;-68
2021/01/07 07:09:38;;;;;;;22.20;12.33;;;1.40;99.90;;;;;;5027922;28;20466;-67
2021/01/07 07:12:07;;;;;;;23.93;14.20;;;1.40;99.90;;;;;;5010034;28;20462;-68
2021/01/07 07:14:35;;;;;;;22.63;12.57;;;1.40;99.90;;;;;;5028322;28;20462;-68
2021/01/07 07:17:07;;;;;;;19.87;12.00;;;1.40;99.90;;;;;;5026515;28;20489;-69
2021/01/07 07:19:40;;;;;;;22.40;12.97;;;1.40;99.90;;;;;;5027463;28;20486;-68
2021/01/07 07:22:10;;;;;;;24.70;13.90;;;1.30;99.90;;;;;;5027572;28;20539;-68
2021/01/07 07:27:46;;;;;;;23.57;13.10;;;1.30;99.90;;;;;;5009827;28;20461;-67
2021/01/07 07:30:17;;;;;;;20.00;12.53;;;1.40;99.90;;;;;;5013473;28;20471;-67
2021/01/07 07:32:45;;;;;;;20.47;12.30;;;1.30;99.90;;;;;;5041228;28;20626;-68
2021/01/07 07:35:22;;;;;;;20.60;10.33;;;1.40;99.90;;;;;;5028866;28;20551;-68
2021/01/07 07:37:49;;;;;;;29.93;13.63;;;1.30;99.90;;;;;;5028562;28;20887;-68
2021/01/07 07:40:32;;;;;;;21.77;12.43;;;1.30;99.90;;;;;;5028444;28;20454;-68
2021/01/07 07:43:02;;;;;;;26.70;15.13;;;1.20;99.90;;;;;;5027609;28;20455;-68
2021/01/07 07:45:31;;;;;;;23.90;12.30;;;1.20;99.90;;;;;;5027518;28;20481;-69
2021/01/07 07:47:58;;;;;;;27.70;13.70;;;1.30;99.90;;;;;;5009770;28;20513;-68
2021/01/07 07:50:28;;;;;;;22.80;12.10;;;1.30;99.90;;;;;;5027639;28;20487;-69
2021/01/07 07:53:04;;;;;;;28.33;12.10;;;1.30;99.90;;;;;;5026066;28;21235;-68
2021/01/07 07:55:34;;;;;;;23.83;12.50;;;1.30;99.90;;;;;;5027181;28;20509;-67
2021/01/07 07:58:09;;;;;;;19.87;11.80;;;1.30;99.90;;;;;;5026627;28;20456;-68
2021/01/07 08:00:37;;;;;;;21.90;12.60;;;1.40;99.90;;;;;;5008202;28;20977;-68
2021/01/07 08:03:04;;;;;;;28.90;14.03;;;1.40;99.90;;;;;;5026762;28;20579;-68
2021/01/07 08:05:33;;;;;;;27.63;13.10;;;1.40;99.90;;;;;;5027431;28;20459;-68
2021/01/07 08:08:04;;;;;;;25.23;13.10;;;1.40;99.90;;;;;;5027074;28;20505;-68
2021/01/07 08:10:31;;;;;;;26.13;14.73;;;1.40;99.90;;;;;;5066053;22;20519;-73
2021/01/07 08:13:00;;;;;;;23.97;13.70;;;1.40;99.90;;;;;;5063375;28;20460;-73
2021/01/07 08:15:29;;;;;;;27.83;15.47;;;1.40;99.90;;;;;;5063064;28;20993;-74
2021/01/07 08:18:13;;;;;;;27.83;14.17;;;1.40;99.90;;;;;;5061076;28;20461;-74
2021/01/07 08:20:41;;;;;;;25.93;13.60;;;1.40;99.90;;;;;;5044669;28;20943;-74
2021/01/07 08:23:09;;;;;;;27.43;14.83;;;1.40;99.90;;;;;;5063055;28;20497;-74
2021/01/07 08:25:37;;;;;;;23.27;14.60;;;1.30;99.90;;;;;;5062243;28;20469;-74
2021/01/07 08:28:12;;;;;;;22.97;13.43;;;1.40;99.90;;;;;;5060871;28;20751;-74
2021/01/07 08:30:49;;;;;;;29.80;17.30;;;1.40;99.90;;;;;;5063095;28;20457;-74
2021/01/07 08:33:20;;;;;;;27.20;13.33;;;1.50;99.90;;;;;;5061772;28;20464;-74
2021/01/07 08:35:48;;;;;;;27.33;15.37;;;1.50;99.90;;;;;;5062006;28;21980;-74
2021/01/07 08:38:29;;;;;;;24.50;13.67;;;1.40;99.90;;;;;;5064318;28;20475;-75
2021/01/07 08:41:11;;;;;;;24.43;14.13;;;1.30;99.90;;;;;;5066767;28;20588;-74
2021/01/07 08:43:39;;;;;;;31.27;15.13;;;1.30;99.90;;;;;;5063576;28;20450;-74
2021/01/07 08:46:15;;;;;;;30.67;15.00;;;1.30;99.90;;;;;;5062915;28;21131;-73
2021/01/07 08:48:43;;;;;;;29.17;14.77;;;1.50;99.90;;;;;;5061782;28;20457;-74
2021/01/07 08:51:17;;;;;;;29.00;15.93;;;1.50;99.90;;;;;;5062086;28;20479;-73
2021/01/07 08:53:50;;;;;;;28.07;16.20;;;1.40;99.90;;;;;;5079027;28;20475;-74
2021/01/07 08:56:33;;;;;;;26.20;16.40;;;1.30;99.90;;;;;;5062530;28;20485;-74
2021/01/07 08:59:18;;;;;;;28.43;13.83;;;1.40;99.90;;;;;;5063178;28;20894;-73
2021/01/07 09:01:47;;;;;;;24.77;13.27;;;1.50;99.90;;;;;;5061297;28;20482;-74
2021/01/07 09:04:43;;;;;;;29.70;14.00;;;1.50;99.90;;;;;;5045195;28;20477;-74
2021/01/07 09:07:19;;;;;;;26.17;13.30;;;1.50;99.90;;;;;;5064047;28;20456;-74
2021/01/07 09:09:47;;;;;;;31.30;15.73;;;1.50;99.90;;;;;;5062312;28;20843;-74
2021/01/07 09:12:20;;;;;;;27.10;16.17;;;1.50;99.90;;;;;;5063266;28;20457;-74
2021/01/07 09:14:53;;;;;;;29.87;15.50;;;1.50;99.90;;;;;;5061775;28;20928;-74
2021/01/07 09:17:23;;;;;;;28.20;13.73;;;1.50;99.90;;;;;;5057943;28;20502;-74
2021/01/07 09:19:52;;;;;;;25.50;14.63;;;1.50;99.90;;;;;;5043052;28;20557;-74
2021/01/07 09:22:21;;;;;;;21.13;12.90;;;1.70;99.90;;;;;;5041860;28;20477;-74
2021/01/07 09:24:50;;;;;;;27.43;14.70;;;1.70;99.90;;;;;;5042027;28;20470;-74
2021/01/07 09:27:19;;;;;;;23.97;14.87;;;1.80;99.90;;;;;;5041644;28;20470;-74
2021/01/07 09:29:47;;;;;;;26.20;13.90;;;1.80;99.90;;;;;;5043209;28;20500;-74
2021/01/07 09:32:16;;;;;;;26.07;14.27;;;1.70;99.90;;;;;;5042299;28;20485;-74
2021/01/07 09:34:45;;;;;;;35.00;16.57;;;1.70;99.90;;;;;;5045707;28;20929;-75
2021/01/07 09:37:15;;;;;;;27.73;15.90;;;1.70;99.90;;;;;;5062858;28;20584;-75
2021/01/07 09:42:36;;;;;;;26.90;13.70;;;1.90;99.90;;;;;;4945075;29;20522;-69
2021/01/07 09:45:07;;;;;;;22.83;13.37;;;1.90;99.90;;;;;;4963000;28;20624;-68
2021/01/07 09:47:36;;;;;;;25.07;15.60;;;1.80;99.90;;;;;;4945160;29;20518;-69
2021/01/07 09:50:06;;;;;;;26.93;13.73;;;1.70;99.90;;;;;;4938761;29;20492;-69
2021/01/07 09:52:34;;;;;;;25.80;13.87;;;1.80;99.90;;;;;;4931404;29;20973;-69
2021/01/07 09:55:02;;;;;;;21.37;13.17;;;1.80;99.90;;;;;;4933471;29;20479;-69
2021/01/07 09:57:29;;;;;;;22.70;12.97;;;1.80;99.90;;;;;;4932150;29;20846;-69
2021/01/07 09:59:57;;;;;;;23.87;13.23;;;1.80;99.90;;;;;;4931014;29;20559;-69
2021/01/07 10:02:24;;;;;;;25.23;13.27;;;1.80;99.90;;;;;;4930402;28;20975;-69
2021/01/07 10:04:51;;;;;;;25.80;13.73;;;1.80;99.90;;;;;;4931399;29;20499;-68
2021/01/07 10:07:20;;;;;;;25.27;12.80;;;1.90;99.90;;;;;;4946221;29;20487;-68
2021/01/07 10:09:49;;;;;;;27.50;14.33;;;1.80;99.90;;;;;;4945951;29;20525;-67
2021/01/07 10:12:16;;;;;;;25.13;13.23;;;1.90;99.90;;;;;;4946308;29;20498;-69
2021/01/07 10:14:43;;;;;;;22.03;13.27;;;2.00;99.90;;;;;;4930828;29;20536;-69
2021/01/07 10:17:11;;;;;;;24.73;13.97;;;2.10;99.90;;;;;;4944699;28;21559;-69
2021/01/07 10:19:39;;;;;;;23.00;13.27;;;2.00;99.90;;;;;;4933234;29;20982;-69
2021/01/07 10:22:10;;;;;;;27.43;13.63;;;2.10;99.90;;;;;;4947414;29;20525;-68
2021/01/07 10:24:42;;;;;;;25.20;14.63;;;2.00;99.90;;;;;;4954492;29;20470;-68
2021/01/07 10:27:17;;;;;;;29.10;15.07;;;1.90;99.90;;;;;;4930100;29;20455;-68
2021/01/07 10:29:46;;;;;;;26.47;14.57;;;1.80;99.90;;;;;;4929868;29;20470;-68
2021/01/07 10:32:15;;;;;;;24.00;13.87;;;1.70;99.90;;;;;;4929550;28;20511;-69
2021/01/07 10:34:44;;;;;;;25.97;13.93;;;1.60;99.90;;;;;;4930651;29;20478;-68
2021/01/07 10:37:13;;;;;;;26.40;14.57;;;1.70;99.90;;;;;;4931109;29;20487;-68
2021/01/07 10:39:43;;;;;;;25.10;14.30;;;1.70;99.90;;;;;;4940539;29;20459;-68
2021/01/07 10:42:14;;;;;;;23.60;13.70;;;1.70;99.90;;;;;;4974330;28;20477;-68
2021/01/07 10:44:43;;;;;;;24.10;13.90;;;1.70;99.90;;;;;;4972034;28;20518;-68
2021/01/07 10:47:12;;;;;;;22.00;12.83;;;1.80;99.90;;;;;;4972083;28;20481;-68
2021/01/07 10:49:43;;;;;;;21.70;13.70;;;1.80;99.90;;;;;;4984490;28;20828;-68
2021/01/07 10:52:48;;;;;;;28.30;13.90;;;1.70;99.90;;;;;;4981585;28;20466;-68
2021/01/07 10:55:24;;;;;;;23.27;13.00;;;1.80;99.90;;;;;;4942085;28;20513;-67
2021/01/07 10:58:14;;;;;;;20.90;12.77;;;1.80;99.90;;;;;;4969083;28;20465;-68
2021/01/07 11:00:50;;;;;;;20.37;13.87;;;1.90;99.90;;;;;;4967109;28;20472;-67
2021/01/07 11:03:31;;;;;;;21.80;12.13;;;2.00;99.90;;;;;;4969674;28;20474;-68
2021/01/07 11:06:02;;;;;;;25.03;12.07;;;2.00;99.90;;;;;;4970333;28;20457;-69
2021/01/07 11:08:34;;;;;;;23.10;13.17;;;2.10;99.90;;;;;;4954121;28;20880;-68
2021/01/07 11:11:13;;;;;;;25.70;13.80;;;2.20;99.90;;;;;;4969286;28;20458;-69
2021/01/07 11:14:07;;;;;;;16.90;11.10;;;2.30;99.90;;;;;;4966828;28;20466;-68
2021/01/07 11:16:42;;;;;;;20.93;12.90;;;2.40;99.90;;;;;;4980801;28;21070;-68
2021/01/07 11:19:12;;;;;;;18.17;10.77;;;2.40;99.90;;;;;;4949232;28;20558;-68
2021/01/07 11:21:55;;;;;;;15.90;11.23;;;2.40;99.90;;;;;;4966005;28;20511;-70
2021/01/07 11:24:25;;;;;;;20.40;12.13;;;2.20;99.90;;;;;;4965010;28;20450;-68
2021/01/07 11:26:55;;;;;;;20.10;12.07;;;2.30;99.90;;;;;;4982152;28;20466;-69
2021/01/07 11:29:23;;;;;;;18.80;11.87;;;2.40;99.90;;;;;;4948941;28;20478;-68
2021/01/07 11:31:53;;;;;;;18.13;12.53;;;2.30;99.90;;;;;;4979775;28;20485;-68
2021/01/07 11:34:21;;;;;;;24.13;12.37;;;2.30;99.90;;;;;;4967213;28;21054;-68
2021/01/07 11:36:54;;;;;;;20.13;12.23;;;2.30;99.90;;;;;;4966897;28;20551;-68
2021/01/07 11:39:26;;;;;;;19.03;11.17;;;2.30;99.90;;;;;;4981239;28;20501;-68
2021/01/07 11:42:07;;;;;;;24.73;12.13;;;2.40;99.90;;;;;;4984929;28;20478;-68
2021/01/07 11:44:46;;;;;;;23.40;12.47;;;2.40;99.90;;;;;;4974025;28;20513;-68
2021/01/07 11:47:15;;;;;;;20.80;12.10;;;2.20;99.90;;;;;;4979479;28;21021;-68
2021/01/07 11:49:48;;;;;;;20.87;10.83;;;2.30;99.90;;;;;;4980506;28;21007;-68
2021/01/07 11:52:16;;;;;;;19.83;12.57;;;2.30;99.90;;;;;;4981179;28;20607;-68
2021/01/07 11:57:41;;;;;;;19.73;11.63;;;2.40;99.90;;;;;;4965596;28;20458;-69
2021/01/07 12:00:13;;;;;;;22.80;12.40;;;2.40;99.90;;;;;;4980170;28;20573;-69
2021/01/07 12:02:42;;;;;;;20.67;12.50;;;2.30;99.90;;;;;;4979008;28;21038;-68
2021/01/07 12:05:13;;;;;;;21.30;13.67;;;2.40;99.90;;;;;;4965930;28;21010;-69
2021/01/07 12:08:13;;;;;;;16.97;11.47;;;2.30;99.90;;;;;;4947789;28;20473;-69
2021/01/07 12:10:43;;;;;;;22.60;12.87;;;2.20;99.90;;;;;;4966212;28;20468;-69
2021/01/07 12:13:24;;;;;;;18.70;11.93;;;2.30;99.90;;;;;;4965390;28;20645;-69
2021/01/07 12:16:24;;;;;;;17.80;11.53;;;2.30;99.90;;;;;;4950383;28;20560;-68
2021/01/07 12:18:52;;;;;;;16.70;12.30;;;2.20;99.90;;;;;;4947724;28;20490;-69
2021/01/07 12:21:20;;;;;;;20.43;12.07;;;2.30;99.90;;;;;;4980325;28;20819;-69
2021/01/07 12:23:48;;;;;;;18.57;11.27;;;2.30;99.90;;;;;;4963859;28;20473;-68
2021/01/07 12:26:17;;;;;;;21.20;12.73;;;2.30;99.90;;;;;;4948026;28;20466;-68
2021/01/07 12:28:52;;;;;;;24.07;11.90;;;2.40;99.90;;;;;;4980030;28;20462;-68
2021/01/07 12:31:20;;;;;;;20.43;11.97;;;2.50;99.90;;;;;;5047554;28;21008;-68
2021/01/07 12:33:58;;;;;;;20.00;12.10;;;2.70;99.90;;;;;;4980966;28;20527;-69
2021/01/07 12:36:42;;;;;;;24.63;13.33;;;2.80;99.90;;;;;;4981657;28;21007;-69
2021/01/07 12:39:45;;;;;;;15.93;11.40;;;2.80;99.90;;;;;;4981773;28;20894;-68
2021/01/07 12:42:21;;;;;;;17.93;10.23;;;2.80;99.90;;;;;;4965209;28;20535;-68
2021/01/07 12:44:55;;;;;;;15.10;9.50;;;2.80;99.90;;;;;;4966939;28;20462;-69
2021/01/07 12:47:23;;;;;;;19.40;12.30;;;2.80;99.90;;;;;;4981457;28;20493;-68
2021/01/07 12:49:56;;;;;;;14.40;9.40;;;2.90;99.90;;;;;;4979987;28;20470;-69
2021/01/07 12:52:26;;;;;;;15.97;10.67;;;2.90;99.90;;;;;;4964102;28;20465;-68
2021/01/07 12:54:57;;;;;;;17.37;8.93;;;3.00;99.90;;;;;;4964918;28;20462;-68
2021/01/07 12:57:27;;;;;;;14.97;10.30;;;3.00;99.90;;;;;;4980674;28;20498;-68
2021/01/07 13:00:06;;;;;;;20.37;10.23;;;3.00;99.90;;;;;;4965475;28;20674;-68
2021/01/07 13:02:49;;;;;;;18.13;10.53;;;3.00;99.90;;;;;;4964960;28;20482;-69
2021/01/07 13:05:25;;;;;;;17.93;10.30;;;3.10;99.90;;;;;;4965121;28;20531;-69
2021/01/07 13:07:58;;;;;;;13.80;9.63;;;3.00;99.90;;;;;;4964697;28;20565;-68